sensor_id;sensor_type;location;lat;lon;timestamp;temperature;humidity
65074;DHT22;52218;51.224;-2.328;2022-09-24T00:03:40;11.50;99.90
65074;DHT22;52218;51.224;-2.328;2022-09-24T00:07:23;11.40;99.90
65074;DHT22;52218;51.224;-2.328;2022-09-24T00:11:06;11.40;99.90
65074;DHT22;52218;51.224;-2.328;2022-09-24T00:14:48;11.40;99.90
65074;DHT22;52218;51.224;-2.328;2022-09-24T00:18:30;11.40;99.90
65074;DHT22;52218;51.224;-2.328;2022-09-24T00:22:12;11.40;99.90
65074;DHT22;52218;51.224;-2.328;2022-09-24T00:25:54;11.40;99.90
65074;DHT22;52218;51.224;-2.328;2022-09-24T00:29:54;11.30;99.90
65074;DHT22;52218;51.224;-2.328;2022-09-24T00:33:36;11.30;99.90
65074;DHT22;52218;51.224;-2.328;2022-09-24T00:37:18;11.20;99.90
65074;DHT22;52218;51.224;-2.328;2022-09-24T00:41:01;11.20;99.90
65074;DHT22;52218;51.224;-2.328;2022-09-24T00:48:26;11.10;99.90
65074;DHT22;52218;51.224;-2.328;2022-09-24T00:52:08;11.10;99.90
65074;DHT22;52218;51.224;-2.328;2022-09-24T00:55:51;11.00;99.90
65074;DHT22;52218;51.224;-2.328;2022-09-24T00:59:35;11.00;99.90
65074;DHT22;52218;51.224;-2.328;2022-09-24T01:03:23;11.00;99.90
65074;DHT22;52218;51.224;-2.328;2022-09-24T01:07:05;10.90;99.90
65074;DHT22;52218;51.224;-2.328;2022-09-24T01:19:07;10.80;99.90
65074;DHT22;52218;51.224;-2.328;2022-09-24T01:23:19;10.70;99.90
65074;DHT22;52218;51.224;-2.328;2022-09-24T01:27:16;10.70;99.90
65074;DHT22;52218;51.224;-2.328;2022-09-24T01:31:09;10.60;99.90
65074;DHT22;52218;51.224;-2.328;2022-09-24T01:39:06;10.60;99.90
65074;DHT22;52218;51.224;-2.328;2022-09-24T01:42:49;10.50;99.90
65074;DHT22;52218;51.224;-2.328;2022-09-24T01:46:35;10.50;99.90
65074;DHT22;52218;51.224;-2.328;2022-09-24T01:50:19;10.40;99.90
65074;DHT22;52218;51.224;-2.328;2022-09-24T01:54:15;10.40;99.90
65074;DHT22;52218;51.224;-2.328;2022-09-24T01:58:07;10.30;99.90
65074;DHT22;52218;51.224;-2.328;2022-09-24T02:02:21;10.30;99.90
65074;DHT22;52218;51.224;-2.328;2022-09-24T02:06:18;10.30;99.90
65074;DHT22;52218;51.224;-2.328;2022-09-24T02:10:01;10.20;99.90
65074;DHT22;52218;51.224;-2.328;2022-09-24T02:17:39;10.10;99.90
65074;DHT22;52218;51.224;-2.328;2022-09-24T02:21:25;10.00;99.90
65074;DHT22;52218;51.224;-2.328;2022-09-24T02:25:10;9.90;99.90
65074;DHT22;52218;51.224;-2.328;2022-09-24T02:28:54;9.90;99.90
65074;DHT22;52218;51.224;-2.328;2022-09-24T02:32:38;9.80;99.90
65074;DHT22;52218;51.224;-2.328;2022-09-24T02:36:21;9.70;99.90
65074;DHT22;52218;51.224;-2.328;2022-09-24T02:40:08;9.70;99.90
65074;DHT22;52218;51.224;-2.328;2022-09-24T02:43:51;9.60;99.90
65074;DHT22;52218;51.224;-2.328;2022-09-24T02:47:33;9.50;99.90
65074;DHT22;52218;51.224;-2.328;2022-09-24T02:51:15;9.40;99.90
65074;DHT22;52218;51.224;-2.328;2022-09-24T02:54:57;9.40;99.90
65074;DHT22;52218;51.224;-2.328;2022-09-24T02:58:39;9.30;99.90
65074;DHT22;52218;51.224;-2.328;2022-09-24T03:02:21;9.20;99.90
65074;DHT22;52218;51.224;-2.328;2022-09-24T03:06:03;9.20;99.90
65074;DHT22;52218;51.224;-2.328;2022-09-24T03:09:45;9.10;99.90
65074;DHT22;52218;51.224;-2.328;2022-09-24T03:13:27;9.00;99.90
65074;DHT22;52218;51.224;-2.328;2022-09-24T03:17:09;8.90;99.90
65074;DHT22;52218;51.224;-2.328;2022-09-24T03:21:08;8.90;99.90
65074;DHT22;52218;51.224;-2.328;2022-09-24T03:24:50;8.80;99.90
65074;DHT22;52218;51.224;-2.328;2022-09-24T03:28:32;8.70;99.90
65074;DHT22;52218;51.224;-2.328;2022-09-24T03:32:14;8.70;99.90
65074;DHT22;52218;51.224;-2.328;2022-09-24T03:36:01;8.60;99.90
65074;DHT22;52218;51.224;-2.328;2022-09-24T03:39:43;8.60;99.90
65074;DHT22;52218;51.224;-2.328;2022-09-24T03:43:26;8.60;99.90
65074;DHT22;52218;51.224;-2.328;2022-09-24T03:47:08;8.50;99.90
65074;DHT22;52218;51.224;-2.328;2022-09-24T03:50:51;8.50;99.90
65074;DHT22;52218;51.224;-2.328;2022-09-24T03:54:33;8.50;99.90
65074;DHT22;52218;51.224;-2.328;2022-09-24T03:58:15;8.50;99.90
65074;DHT22;52218;51.224;-2.328;2022-09-24T04:01:57;8.50;99.90
65074;DHT22;52218;51.224;-2.328;2022-09-24T04:05:39;8.50;99.90
65074;DHT22;52218;51.224;-2.328;2022-09-24T04:09:21;8.40;99.90
65074;DHT22;52218;51.224;-2.328;2022-09-24T04:13:02;8.40;99.90
65074;DHT22;52218;51.224;-2.328;2022-09-24T04:16:45;8.40;99.90
65074;DHT22;52218;51.224;-2.328;2022-09-24T04:20:28;8.30;99.90
65074;DHT22;52218;51.224;-2.328;2022-09-24T04:24:10;8.20;99.90
65074;DHT22;52218;51.224;-2.328;2022-09-24T04:27:55;8.20;99.90
65074;DHT22;52218;51.224;-2.328;2022-09-24T04:31:37;8.20;99.90
65074;DHT22;52218;51.224;-2.328;2022-09-24T04:35:21;8.20;99.90
65074;DHT22;52218;51.224;-2.328;2022-09-24T04:39:03;8.20;99.90
65074;DHT22;52218;51.224;-2.328;2022-09-24T04:42:46;8.20;99.90
65074;DHT22;52218;51.224;-2.328;2022-09-24T04:46:28;8.10;99.90
65074;DHT22;52218;51.224;-2.328;2022-09-24T04:50:10;8.10;99.90
65074;DHT22;52218;51.224;-2.328;2022-09-24T04:53:52;8.10;99.90
65074;DHT22;52218;51.224;-2.328;2022-09-24T04:57:34;8.10;99.90
65074;DHT22;52218;51.224;-2.328;2022-09-24T05:01:17;8.10;99.90
65074;DHT22;52218;51.224;-2.328;2022-09-24T05:05:00;8.00;99.90
65074;DHT22;52218;51.224;-2.328;2022-09-24T05:08:42;8.00;99.90
65074;DHT22;52218;51.224;-2.328;2022-09-24T05:12:24;7.90;99.90
65074;DHT22;52218;51.224;-2.328;2022-09-24T05:16:06;7.90;99.90
65074;DHT22;52218;51.224;-2.328;2022-09-24T05:19:48;7.80;99.90
65074;DHT22;52218;51.224;-2.328;2022-09-24T05:23:30;7.80;99.90
65074;DHT22;52218;51.224;-2.328;2022-09-24T05:27:11;7.70;99.90
65074;DHT22;52218;51.224;-2.328;2022-09-24T05:30:57;7.70;99.90
65074;DHT22;52218;51.224;-2.328;2022-09-24T05:34:39;7.60;99.90
65074;DHT22;52218;51.224;-2.328;2022-09-24T05:38:23;7.50;99.90
65074;DHT22;52218;51.224;-2.328;2022-09-24T05:42:05;7.50;99.90
65074;DHT22;52218;51.224;-2.328;2022-09-24T05:45:50;7.50;99.90
65074;DHT22;52218;51.224;-2.328;2022-09-24T05:49:31;7.40;99.90
65074;DHT22;52218;51.224;-2.328;2022-09-24T05:53:14;7.40;99.90
65074;DHT22;52218;51.224;-2.328;2022-09-24T05:56:56;7.30;99.90
65074;DHT22;52218;51.224;-2.328;2022-09-24T06:00:38;7.30;99.90
65074;DHT22;52218;51.224;-2.328;2022-09-24T06:04:20;7.30;99.90
65074;DHT22;52218;51.224;-2.328;2022-09-24T06:08:05;7.20;99.90
65074;DHT22;52218;51.224;-2.328;2022-09-24T06:11:49;7.20;99.90
65074;DHT22;52218;51.224;-2.328;2022-09-24T06:15:34;7.20;99.90
65074;DHT22;52218;51.224;-2.328;2022-09-24T06:19:16;7.20;99.90
65074;DHT22;52218;51.224;-2.328;2022-09-24T06:22:58;7.20;99.90
65074;DHT22;52218;51.224;-2.328;2022-09-24T06:26:40;7.20;99.90
65074;DHT22;52218;51.224;-2.328;2022-09-24T06:30:22;7.20;99.90
65074;DHT22;52218;51.224;-2.328;2022-09-24T06:34:04;7.20;99.90
65074;DHT22;52218;51.224;-2.328;2022-09-24T06:37:46;7.30;99.90
65074;DHT22;52218;51.224;-2.328;2022-09-24T06:41:29;7.30;99.90
65074;DHT22;52218;51.224;-2.328;2022-09-24T06:45:11;7.40;99.90
65074;DHT22;52218;51.224;-2.328;2022-09-24T06:48:53;7.50;99.90
65074;DHT22;52218;51.224;-2.328;2022-09-24T06:52:36;7.60;99.90
65074;DHT22;52218;51.224;-2.328;2022-09-24T06:56:17;7.60;99.90
65074;DHT22;52218;51.224;-2.328;2022-09-24T07:00:00;7.70;99.90
65074;DHT22;52218;51.224;-2.328;2022-09-24T07:03:42;7.80;99.90
65074;DHT22;52218;51.224;-2.328;2022-09-24T07:07:24;7.90;99.90
65074;DHT22;52218;51.224;-2.328;2022-09-24T07:11:13;8.10;99.90
65074;DHT22;52218;51.224;-2.328;2022-09-24T07:14:56;8.30;99.90
65074;DHT22;52218;51.224;-2.328;2022-09-24T07:18:38;8.60;99.90
65074;DHT22;52218;51.224;-2.328;2022-09-24T07:22:21;8.80;99.90
65074;DHT22;52218;51.224;-2.328;2022-09-24T07:26:03;9.00;99.90
65074;DHT22;52218;51.224;-2.328;2022-09-24T07:29:44;9.20;99.90
65074;DHT22;52218;51.224;-2.328;2022-09-24T07:33:26;9.40;99.90
65074;DHT22;52218;51.224;-2.328;2022-09-24T07:37:08;9.60;99.90
65074;DHT22;52218;51.224;-2.328;2022-09-24T07:40:50;9.80;99.90
65074;DHT22;52218;51.224;-2.328;2022-09-24T07:44:33;10.00;99.90
65074;DHT22;52218;51.224;-2.328;2022-09-24T07:48:17;10.20;99.90
65074;DHT22;52218;51.224;-2.328;2022-09-24T07:51:59;10.40;99.90
65074;DHT22;52218;51.224;-2.328;2022-09-24T07:55:42;10.60;99.90
65074;DHT22;52218;51.224;-2.328;2022-09-24T07:59:24;10.80;99.90
65074;DHT22;52218;51.224;-2.328;2022-09-24T08:03:06;11.00;99.90
65074;DHT22;52218;51.224;-2.328;2022-09-24T08:06:48;11.30;99.90
65074;DHT22;52218;51.224;-2.328;2022-09-24T08:10:30;11.60;99.90
65074;DHT22;52218;51.224;-2.328;2022-09-24T08:14:12;12.30;99.90
65074;DHT22;52218;51.224;-2.328;2022-09-24T08:18:00;13.00;99.90
65074;DHT22;52218;51.224;-2.328;2022-09-24T08:21:42;13.60;99.90
65074;DHT22;52218;51.224;-2.328;2022-09-24T08:25:24;14.10;99.90
65074;DHT22;52218;51.224;-2.328;2022-09-24T08:29:06;14.90;99.90
65074;DHT22;52218;51.224;-2.328;2022-09-24T08:32:48;15.80;99.80
65074;DHT22;52218;51.224;-2.328;2022-09-24T08:36:29;16.50;98.80
65074;DHT22;52218;51.224;-2.328;2022-09-24T08:40:22;17.00;97.80
65074;DHT22;52218;51.224;-2.328;2022-09-24T08:44:23;17.20;97.70
65074;DHT22;52218;51.224;-2.328;2022-09-24T08:48:28;17.10;97.50
65074;DHT22;52218;51.224;-2.328;2022-09-24T08:56:13;16.80;97.20
65074;DHT22;52218;51.224;-2.328;2022-09-24T08:59:59;16.70;96.70
65074;DHT22;52218;51.224;-2.328;2022-09-24T09:03:45;16.80;96.80
65074;DHT22;52218;51.224;-2.328;2022-09-24T09:07:49;16.80;96.00
65074;DHT22;52218;51.224;-2.328;2022-09-24T09:11:36;16.80;96.60
65074;DHT22;52218;51.224;-2.328;2022-09-24T09:15:24;16.90;96.00
65074;DHT22;52218;51.224;-2.328;2022-09-24T09:19:11;17.00;95.80
65074;DHT22;52218;51.224;-2.328;2022-09-24T09:22:56;17.10;95.50
65074;DHT22;52218;51.224;-2.328;2022-09-24T09:26:48;17.00;95.10
65074;DHT22;52218;51.224;-2.328;2022-09-24T09:34:54;17.00;95.20
65074;DHT22;52218;51.224;-2.328;2022-09-24T09:42:39;17.90;93.80
65074;DHT22;52218;51.224;-2.328;2022-09-24T09:46:33;18.60;92.60
65074;DHT22;52218;51.224;-2.328;2022-09-24T09:54:21;20.90;89.70
65074;DHT22;52218;51.224;-2.328;2022-09-24T09:58:22;21.70;84.70
65074;DHT22;52218;51.224;-2.328;2022-09-24T10:02:09;22.30;85.20
65074;DHT22;52218;51.224;-2.328;2022-09-24T10:06:00;23.40;79.50
65074;DHT22;52218;51.224;-2.328;2022-09-24T10:09:43;24.30;76.80
65074;DHT22;52218;51.224;-2.328;2022-09-24T10:13:26;24.90;72.90
65074;DHT22;52218;51.224;-2.328;2022-09-24T10:17:17;25.40;70.80
65074;DHT22;52218;51.224;-2.328;2022-09-24T10:21:08;25.40;70.30
65074;DHT22;52218;51.224;-2.328;2022-09-24T10:24:54;25.00;70.00
65074;DHT22;52218;51.224;-2.328;2022-09-24T10:28:40;24.80;67.70
65074;DHT22;52218;51.224;-2.328;2022-09-24T10:32:44;24.80;66.90
65074;DHT22;52218;51.224;-2.328;2022-09-24T10:36:30;25.00;66.70
65074;DHT22;52218;51.224;-2.328;2022-09-24T10:40:15;25.60;63.60
65074;DHT22;52218;51.224;-2.328;2022-09-24T10:44:09;26.40;62.00
65074;DHT22;52218;51.224;-2.328;2022-09-24T10:48:12;26.80;60.50
65074;DHT22;52218;51.224;-2.328;2022-09-24T10:52:06;27.20;61.10
65074;DHT22;52218;51.224;-2.328;2022-09-24T10:55:54;27.70;57.90
65074;DHT22;52218;51.224;-2.328;2022-09-24T11:19:39;29.40;53.40
65074;DHT22;52218;51.224;-2.328;2022-09-24T11:35:11;31.00;49.10
65074;DHT22;52218;51.224;-2.328;2022-09-24T11:55:24;31.60;45.80
65074;DHT22;52218;51.224;-2.328;2022-09-24T11:58:46;31.90;45.20
65074;DHT22;52218;51.224;-2.328;2022-09-24T12:02:34;32.30;44.70
65074;DHT22;52218;51.224;-2.328;2022-09-24T12:06:29;32.40;44.40
65074;DHT22;52218;51.224;-2.328;2022-09-24T12:14:30;32.60;42.40
65074;DHT22;52218;51.224;-2.328;2022-09-24T12:22:20;32.10;42.70
65074;DHT22;52218;51.224;-2.328;2022-09-24T12:26:04;31.80;41.80
65074;DHT22;52218;51.224;-2.328;2022-09-24T12:30:13;31.60;41.70
65074;DHT22;52218;51.224;-2.328;2022-09-24T12:38:19;31.30;42.40
65074;DHT22;52218;51.224;-2.328;2022-09-24T12:42:06;31.20;41.80
65074;DHT22;52218;51.224;-2.328;2022-09-24T12:45:57;31.30;41.90
65074;DHT22;52218;51.224;-2.328;2022-09-24T12:49:40;31.60;42.10
65074;DHT22;52218;51.224;-2.328;2022-09-24T12:53:22;31.90;40.80
65074;DHT22;52218;51.224;-2.328;2022-09-24T13:01:33;32.30;40.90
65074;DHT22;52218;51.224;-2.328;2022-09-24T13:13:34;31.80;41.90
65074;DHT22;52218;51.224;-2.328;2022-09-24T13:17:17;31.90;41.70
65074;DHT22;52218;51.224;-2.328;2022-09-24T13:21:05;32.00;39.80
65074;DHT22;52218;51.224;-2.328;2022-09-24T13:24:50;32.00;40.50
65074;DHT22;52218;51.224;-2.328;2022-09-24T13:32:33;32.30;40.10
65074;DHT22;52218;51.224;-2.328;2022-09-24T13:36:22;32.50;39.30
65074;DHT22;52218;51.224;-2.328;2022-09-24T13:40:18;32.10;39.00
65074;DHT22;52218;51.224;-2.328;2022-09-24T13:44:06;31.60;39.70
65074;DHT22;52218;51.224;-2.328;2022-09-24T13:51:50;31.10;39.80
65074;DHT22;52218;51.224;-2.328;2022-09-24T13:55:43;30.90;40.20
65074;DHT22;52218;51.224;-2.328;2022-09-24T13:59:25;31.00;40.10
65074;DHT22;52218;51.224;-2.328;2022-09-24T14:03:28;30.80;40.10
65074;DHT22;52218;51.224;-2.328;2022-09-24T14:07:11;30.20;41.60
65074;DHT22;52218;51.224;-2.328;2022-09-24T14:11:19;29.20;41.90
65074;DHT22;52218;51.224;-2.328;2022-09-24T14:15:08;27.90;43.60
65074;DHT22;52218;51.224;-2.328;2022-09-24T14:19:01;26.70;44.10
65074;DHT22;52218;51.224;-2.328;2022-09-24T14:22:44;26.00;45.60
65074;DHT22;52218;51.224;-2.328;2022-09-24T14:26:40;26.30;45.40
65074;DHT22;52218;51.224;-2.328;2022-09-24T14:30:26;27.00;44.50
65074;DHT22;52218;51.224;-2.328;2022-09-24T14:34:23;27.50;43.80
65074;DHT22;52218;51.224;-2.328;2022-09-24T14:38:12;28.00;43.30
65074;DHT22;52218;51.224;-2.328;2022-09-24T14:41:56;28.00;42.50
65074;DHT22;52218;51.224;-2.328;2022-09-24T14:45:39;27.40;43.40
65074;DHT22;52218;51.224;-2.328;2022-09-24T14:49:27;27.20;44.00
65074;DHT22;52218;51.224;-2.328;2022-09-24T14:57:34;26.70;44.20
65074;DHT22;52218;51.224;-2.328;2022-09-24T15:01:17;25.90;46.20
65074;DHT22;52218;51.224;-2.328;2022-09-24T15:05:03;25.10;46.90
65074;DHT22;52218;51.224;-2.328;2022-09-24T15:09:06;24.30;47.80
65074;DHT22;52218;51.224;-2.328;2022-09-24T15:12:56;23.60;49.00
65074;DHT22;52218;51.224;-2.328;2022-09-24T15:16:38;23.00;49.50
65074;DHT22;52218;51.224;-2.328;2022-09-24T15:20:20;22.50;51.10
65074;DHT22;52218;51.224;-2.328;2022-09-24T15:24:02;22.10;51.80
65074;DHT22;52218;51.224;-2.328;2022-09-24T15:27:45;21.70;52.10
65074;DHT22;52218;51.224;-2.328;2022-09-24T15:31:27;21.30;53.10
65074;DHT22;52218;51.224;-2.328;2022-09-24T15:35:13;21.00;53.70
65074;DHT22;52218;51.224;-2.328;2022-09-24T15:39:00;20.70;54.00
65074;DHT22;52218;51.224;-2.328;2022-09-24T15:42:42;20.40;53.70
65074;DHT22;52218;51.224;-2.328;2022-09-24T15:46:25;20.20;55.10
65074;DHT22;52218;51.224;-2.328;2022-09-24T15:50:08;20.10;54.60
65074;DHT22;52218;51.224;-2.328;2022-09-24T15:53:50;19.90;54.60
65074;DHT22;52218;51.224;-2.328;2022-09-24T15:57:32;19.90;54.90
65074;DHT22;52218;51.224;-2.328;2022-09-24T16:01:15;19.80;55.10
65074;DHT22;52218;51.224;-2.328;2022-09-24T16:05:00;19.70;54.80
65074;DHT22;52218;51.224;-2.328;2022-09-24T16:08:44;19.60;54.50
65074;DHT22;52218;51.224;-2.328;2022-09-24T16:12:26;19.50;55.10
65074;DHT22;52218;51.224;-2.328;2022-09-24T16:16:09;19.40;55.20
65074;DHT22;52218;51.224;-2.328;2022-09-24T16:19:51;19.30;55.30
65074;DHT22;52218;51.224;-2.328;2022-09-24T16:23:33;19.20;55.60
65074;DHT22;52218;51.224;-2.328;2022-09-24T16:27:15;19.10;55.80
65074;DHT22;52218;51.224;-2.328;2022-09-24T16:30:57;19.10;56.60
65074;DHT22;52218;51.224;-2.328;2022-09-24T16:34:40;19.00;55.60
65074;DHT22;52218;51.224;-2.328;2022-09-24T16:38:22;19.00;55.50
65074;DHT22;52218;51.224;-2.328;2022-09-24T16:42:04;19.00;56.50
65074;DHT22;52218;51.224;-2.328;2022-09-24T16:45:46;19.00;56.00
65074;DHT22;52218;51.224;-2.328;2022-09-24T16:49:28;19.00;56.00
65074;DHT22;52218;51.224;-2.328;2022-09-24T16:53:09;19.10;56.10
65074;DHT22;52218;51.224;-2.328;2022-09-24T16:56:51;19.10;56.90
65074;DHT22;52218;51.224;-2.328;2022-09-24T17:00:33;19.10;58.70
65074;DHT22;52218;51.224;-2.328;2022-09-24T17:04:15;19.10;59.90
65074;DHT22;52218;51.224;-2.328;2022-09-24T17:07:57;19.10;60.80
65074;DHT22;52218;51.224;-2.328;2022-09-24T17:11:39;19.00;61.30
65074;DHT22;52218;51.224;-2.328;2022-09-24T17:15:21;18.80;61.90
65074;DHT22;52218;51.224;-2.328;2022-09-24T17:19:03;18.70;62.60
65074;DHT22;52218;51.224;-2.328;2022-09-24T17:22:46;18.50;63.30
65074;DHT22;52218;51.224;-2.328;2022-09-24T17:26:30;18.30;63.60
65074;DHT22;52218;51.224;-2.328;2022-09-24T17:30:13;18.20;64.40
65074;DHT22;52218;51.224;-2.328;2022-09-24T17:33:59;18.10;64.60
65074;DHT22;52218;51.224;-2.328;2022-09-24T17:37:41;17.90;65.20
65074;DHT22;52218;51.224;-2.328;2022-09-24T17:41:23;17.80;65.20
65074;DHT22;52218;51.224;-2.328;2022-09-24T17:45:05;17.70;66.10
65074;DHT22;52218;51.224;-2.328;2022-09-24T17:48:50;17.60;66.20
65074;DHT22;52218;51.224;-2.328;2022-09-24T17:52:32;17.50;66.10
65074;DHT22;52218;51.224;-2.328;2022-09-24T17:56:16;17.30;66.70
65074;DHT22;52218;51.224;-2.328;2022-09-24T17:59:58;17.20;67.10
65074;DHT22;52218;51.224;-2.328;2022-09-24T18:03:40;17.20;67.90
65074;DHT22;52218;51.224;-2.328;2022-09-24T18:07:22;17.10;68.90
65074;DHT22;52218;51.224;-2.328;2022-09-24T18:11:11;17.00;68.90
65074;DHT22;52218;51.224;-2.328;2022-09-24T18:14:53;16.90;69.50
65074;DHT22;52218;51.224;-2.328;2022-09-24T18:18:35;16.80;70.10
65074;DHT22;52218;51.224;-2.328;2022-09-24T18:22:17;16.80;70.80
65074;DHT22;52218;51.224;-2.328;2022-09-24T18:29:54;16.60;70.70
65074;DHT22;52218;51.224;-2.328;2022-09-24T18:33:41;16.50;72.50
65074;DHT22;52218;51.224;-2.328;2022-09-24T18:37:23;16.50;72.40
65074;DHT22;52218;51.224;-2.328;2022-09-24T18:41:11;16.40;72.60
65074;DHT22;52218;51.224;-2.328;2022-09-24T18:44:54;16.30;72.50
65074;DHT22;52218;51.224;-2.328;2022-09-24T18:48:37;16.20;73.40
65074;DHT22;52218;51.224;-2.328;2022-09-24T18:52:19;16.20;73.70
65074;DHT22;52218;51.224;-2.328;2022-09-24T18:56:05;16.10;74.20
65074;DHT22;52218;51.224;-2.328;2022-09-24T18:59:48;16.00;74.60
65074;DHT22;52218;51.224;-2.328;2022-09-24T19:03:30;15.90;75.00
65074;DHT22;52218;51.224;-2.328;2022-09-24T19:07:12;15.90;75.40
65074;DHT22;52218;51.224;-2.328;2022-09-24T19:10:54;15.80;76.50
65074;DHT22;52218;51.224;-2.328;2022-09-24T19:14:36;15.80;76.70
65074;DHT22;52218;51.224;-2.328;2022-09-24T19:18:18;15.80;76.90
65074;DHT22;52218;51.224;-2.328;2022-09-24T19:22:00;15.70;77.20
65074;DHT22;52218;51.224;-2.328;2022-09-24T19:25:42;15.70;77.70
65074;DHT22;52218;51.224;-2.328;2022-09-24T19:29:24;15.70;78.10
65074;DHT22;52218;51.224;-2.328;2022-09-24T19:33:07;15.70;78.40
65074;DHT22;52218;51.224;-2.328;2022-09-24T19:36:50;15.60;78.50
65074;DHT22;52218;51.224;-2.328;2022-09-24T19:40:32;15.60;79.10
65074;DHT22;52218;51.224;-2.328;2022-09-24T19:44:14;15.60;78.90
65074;DHT22;52218;51.224;-2.328;2022-09-24T19:47:57;15.60;79.60
65074;DHT22;52218;51.224;-2.328;2022-09-24T19:51:40;15.50;79.60
65074;DHT22;52218;51.224;-2.328;2022-09-24T19:55:21;15.50;80.30
65074;DHT22;52218;51.224;-2.328;2022-09-24T19:59:09;15.40;80.20
65074;DHT22;52218;51.224;-2.328;2022-09-24T20:02:51;15.30;80.90
65074;DHT22;52218;51.224;-2.328;2022-09-24T20:06:34;15.30;81.10
65074;DHT22;52218;51.224;-2.328;2022-09-24T20:10:16;15.20;81.60
65074;DHT22;52218;51.224;-2.328;2022-09-24T20:13:59;15.10;82.50
65074;DHT22;52218;51.224;-2.328;2022-09-24T20:17:42;15.00;83.20
65074;DHT22;52218;51.224;-2.328;2022-09-24T20:21:26;14.90;83.50
65074;DHT22;52218;51.224;-2.328;2022-09-24T20:25:09;14.80;85.10
65074;DHT22;52218;51.224;-2.328;2022-09-24T20:28:52;14.70;85.00
65074;DHT22;52218;51.224;-2.328;2022-09-24T20:32:34;14.70;85.80
65074;DHT22;52218;51.224;-2.328;2022-09-24T20:36:17;14.60;86.40
65074;DHT22;52218;51.224;-2.328;2022-09-24T20:40:06;14.50;87.00
65074;DHT22;52218;51.224;-2.328;2022-09-24T20:43:49;14.50;87.90
65074;DHT22;52218;51.224;-2.328;2022-09-24T20:47:31;14.40;88.40
65074;DHT22;52218;51.224;-2.328;2022-09-24T20:51:15;14.30;89.30
65074;DHT22;52218;51.224;-2.328;2022-09-24T20:54:58;14.20;90.00
65074;DHT22;52218;51.224;-2.328;2022-09-24T20:58:41;14.10;90.40
65074;DHT22;52218;51.224;-2.328;2022-09-24T21:02:23;14.00;90.60
65074;DHT22;52218;51.224;-2.328;2022-09-24T21:06:06;13.90;91.00
65074;DHT22;52218;51.224;-2.328;2022-09-24T21:09:48;13.90;91.30
65074;DHT22;52218;51.224;-2.328;2022-09-24T21:13:38;13.80;91.50
65074;DHT22;52218;51.224;-2.328;2022-09-24T21:17:20;13.70;91.80
65074;DHT22;52218;51.224;-2.328;2022-09-24T21:21:04;13.70;92.20
65074;DHT22;52218;51.224;-2.328;2022-09-24T21:24:46;13.60;92.50
65074;DHT22;52218;51.224;-2.328;2022-09-24T21:28:31;13.50;92.80
65074;DHT22;52218;51.224;-2.328;2022-09-24T21:32:14;13.50;93.10
65074;DHT22;52218;51.224;-2.328;2022-09-24T21:36:02;13.40;93.40
65074;DHT22;52218;51.224;-2.328;2022-09-24T21:39:44;13.30;93.70
65074;DHT22;52218;51.224;-2.328;2022-09-24T21:43:26;13.30;94.10
65074;DHT22;52218;51.224;-2.328;2022-09-24T21:47:15;13.10;94.40
65074;DHT22;52218;51.224;-2.328;2022-09-24T21:51:07;13.00;94.80
65074;DHT22;52218;51.224;-2.328;2022-09-24T21:54:49;12.90;95.10
65074;DHT22;52218;51.224;-2.328;2022-09-24T21:58:31;12.90;95.60
65074;DHT22;52218;51.224;-2.328;2022-09-24T22:02:13;12.80;96.20
65074;DHT22;52218;51.224;-2.328;2022-09-24T22:05:55;12.70;96.40
65074;DHT22;52218;51.224;-2.328;2022-09-24T22:09:40;12.70;96.70
65074;DHT22;52218;51.224;-2.328;2022-09-24T22:13:22;12.60;97.00
65074;DHT22;52218;51.224;-2.328;2022-09-24T22:17:04;12.60;97.40
65074;DHT22;52218;51.224;-2.328;2022-09-24T22:20:46;12.60;97.60
65074;DHT22;52218;51.224;-2.328;2022-09-24T22:24:29;12.50;97.90
65074;DHT22;52218;51.224;-2.328;2022-09-24T22:28:12;12.50;98.20
65074;DHT22;52218;51.224;-2.328;2022-09-24T22:32:00;12.40;98.40
65074;DHT22;52218;51.224;-2.328;2022-09-24T22:35:43;12.30;98.70
65074;DHT22;52218;51.224;-2.328;2022-09-24T22:39:32;12.30;98.90
65074;DHT22;52218;51.224;-2.328;2022-09-24T22:43:14;12.20;99.10
65074;DHT22;52218;51.224;-2.328;2022-09-24T22:46:57;12.20;99.20
65074;DHT22;52218;51.224;-2.328;2022-09-24T22:50:39;12.10;99.50
65074;DHT22;52218;51.224;-2.328;2022-09-24T22:54:21;12.10;99.90
65074;DHT22;52218;51.224;-2.328;2022-09-24T22:58:04;12.10;99.90
65074;DHT22;52218;51.224;-2.328;2022-09-24T23:01:46;12.00;99.90
65074;DHT22;52218;51.224;-2.328;2022-09-24T23:05:32;12.00;99.90
65074;DHT22;52218;51.224;-2.328;2022-09-24T23:09:14;12.00;99.90
65074;DHT22;52218;51.224;-2.328;2022-09-24T23:12:56;11.90;99.90
65074;DHT22;52218;51.224;-2.328;2022-09-24T23:16:38;11.80;99.90
65074;DHT22;52218;51.224;-2.328;2022-09-24T23:20:21;11.80;99.90
65074;DHT22;52218;51.224;-2.328;2022-09-24T23:24:06;11.70;99.90
65074;DHT22;52218;51.224;-2.328;2022-09-24T23:27:48;11.70;99.90
65074;DHT22;52218;51.224;-2.328;2022-09-24T23:31:33;11.70;99.90
65074;DHT22;52218;51.224;-2.328;2022-09-24T23:35:16;11.70;99.90
65074;DHT22;52218;51.224;-2.328;2022-09-24T23:38:59;11.60;99.90
65074;DHT22;52218;51.224;-2.328;2022-09-24T23:42:42;11.60;99.90
65074;DHT22;52218;51.224;-2.328;2022-09-24T23:46:24;11.60;99.90
65074;DHT22;52218;51.224;-2.328;2022-09-24T23:50:06;11.50;99.90
65074;DHT22;52218;51.224;-2.328;2022-09-24T23:53:48;11.50;99.90
65074;DHT22;52218;51.224;-2.328;2022-09-24T23:57:30;11.50;99.90
